createdAt,value
2022-11-22T00:01:35.393Z,8.30
2022-11-22T00:04:04.902Z,10.80
2022-11-22T00:06:34.354Z,9.17
2022-11-22T00:09:03.950Z,9.00
2022-11-22T00:11:33.435Z,9.53
2022-11-22T00:14:02.875Z,8.17
2022-11-22T00:16:33.948Z,9.07
2022-11-22T00:19:03.377Z,9.03
2022-11-22T00:21:32.944Z,9.75
2022-11-22T00:24:02.344Z,9.93
2022-11-22T00:26:31.800Z,9.20
2022-11-22T00:29:01.224Z,8.13
2022-11-22T00:31:30.738Z,7.53
2022-11-22T00:34:00.524Z,8.67
2022-11-22T00:36:29.971Z,7.50
2022-11-22T00:38:59.382Z,7.67
2022-11-22T00:41:28.828Z,6.85
2022-11-22T00:43:58.248Z,7.20
2022-11-22T00:46:27.770Z,10.07
2022-11-22T00:48:57.202Z,8.57
2022-11-22T00:51:26.633Z,8.53
2022-11-22T00:53:56.226Z,7.93
2022-11-22T00:56:25.662Z,9.37
2022-11-22T00:58:55.170Z,10.47
2022-11-22T01:01:24.938Z,10.40
2022-11-22T01:03:54.558Z,9.37
2022-11-22T01:06:24.069Z,9.13
2022-11-22T01:08:53.504Z,8.57
2022-11-22T01:11:23.001Z,7.83
2022-11-22T01:13:52.427Z,7.83
2022-11-22T01:16:21.856Z,6.80
2022-11-22T01:18:51.289Z,10.00
2022-11-22T01:21:20.721Z,9.43
2022-11-22T01:23:50.164Z,7.73
2022-11-22T01:26:19.756Z,8.87
2022-11-22T01:28:49.193Z,10.60
2022-11-22T01:31:18.617Z,9.07
2022-11-22T01:33:48.052Z,6.83
2022-11-22T01:36:17.676Z,8.67
2022-11-22T01:38:47.106Z,9.20
2022-11-22T01:41:17.078Z,8.93
2022-11-22T01:43:46.528Z,9.03
2022-11-22T01:46:29.427Z,8.80
2022-11-22T01:49:03.459Z,9.70
2022-11-22T01:51:45.586Z,9.13
2022-11-22T01:54:22.538Z,8.47
2022-11-22T01:56:56.577Z,9.73
2022-11-22T01:59:30.841Z,8.03
2022-11-22T02:02:01.966Z,8.90
2022-11-22T02:04:35.397Z,10.23
2022-11-22T02:07:26.615Z,9.10
2022-11-22T02:09:57.009Z,8.00
2022-11-22T02:12:32.532Z,7.17
2022-11-22T02:15:02.020Z,8.57
2022-11-22T02:17:31.646Z,8.77
2022-11-22T02:20:01.061Z,8.57
2022-11-22T02:22:53.226Z,8.93
2022-11-22T02:25:32.923Z,9.20
2022-11-22T02:28:02.493Z,7.47
2022-11-22T02:30:31.930Z,7.77
2022-11-22T02:33:01.406Z,6.40
2022-11-22T02:35:32.044Z,7.13
2022-11-22T02:38:08.563Z,5.93
2022-11-22T02:40:45.425Z,6.80
2022-11-22T02:43:21.909Z,4.60
2022-11-22T02:45:51.338Z,5.50
2022-11-22T02:48:21.018Z,4.67
2022-11-22T02:50:50.450Z,6.07
2022-11-22T02:53:19.886Z,7.43
2022-11-22T02:55:49.311Z,8.13
2022-11-22T02:58:18.981Z,6.47
2022-11-22T03:00:48.474Z,6.20
2022-11-22T03:03:17.938Z,7.10
2022-11-22T03:05:47.363Z,6.83
2022-11-22T03:08:16.794Z,6.93
2022-11-22T03:10:46.219Z,6.50
2022-11-22T03:13:15.684Z,8.43
2022-11-22T03:15:49.418Z,7.30
2022-11-22T03:18:18.870Z,6.50
2022-11-22T03:20:48.297Z,7.43
2022-11-22T03:23:17.797Z,4.67
2022-11-22T03:25:47.226Z,6.97
2022-11-22T03:28:16.656Z,6.10
2022-11-22T03:30:46.081Z,6.90
2022-11-22T03:33:15.967Z,6.23
2022-11-22T03:35:45.391Z,6.20
2022-11-22T03:38:14.825Z,7.67
2022-11-22T03:40:47.502Z,6.97
2022-11-22T03:43:19.664Z,7.97
2022-11-22T03:45:49.738Z,7.13
2022-11-22T03:48:19.535Z,7.80
2022-11-22T03:50:48.963Z,6.90
2022-11-22T03:53:18.391Z,8.07
2022-11-22T03:55:47.820Z,8.80
2022-11-22T03:58:17.250Z,8.97
2022-11-22T04:00:46.679Z,8.77
2022-11-22T04:03:16.110Z,7.57
2022-11-22T04:05:46.980Z,12.77
2022-11-22T04:08:16.789Z,11.27
2022-11-22T04:10:46.216Z,11.87
2022-11-22T04:13:15.987Z,10.37
2022-11-22T04:15:45.578Z,8.73
2022-11-22T04:18:16.241Z,8.87
2022-11-22T04:21:03.357Z,9.63
2022-11-22T04:23:34.431Z,9.37
2022-11-22T04:26:04.268Z,6.70
2022-11-22T04:29:01.893Z,8.23
2022-11-22T04:31:22.365Z,9.03
2022-11-22T04:33:51.799Z,9.00
2022-11-22T04:36:21.227Z,7.43
2022-11-22T04:38:50.688Z,10.67
2022-11-22T04:41:20.132Z,10.37
2022-11-22T04:44:07.249Z,8.50
2022-11-22T04:46:36.746Z,8.87
2022-11-22T04:49:06.259Z,8.50
2022-11-22T04:51:37.308Z,8.43
2022-11-22T04:54:06.751Z,7.73
2022-11-22T04:56:36.165Z,8.77
2022-11-22T04:59:05.601Z,8.43
2022-11-22T05:01:35.059Z,10.07
2022-11-22T05:04:04.473Z,8.33
2022-11-22T05:06:33.891Z,9.90
2022-11-22T05:09:03.337Z,9.40
2022-11-22T05:11:32.746Z,8.90
2022-11-22T05:14:02.181Z,7.37
2022-11-22T05:16:31.608Z,10.30
2022-11-22T05:19:01.076Z,9.67
2022-11-22T05:21:33.357Z,9.97
2022-11-22T05:24:03.452Z,9.83
2022-11-22T05:26:36.867Z,9.00
2022-11-22T05:29:10.298Z,9.77
2022-11-22T05:31:46.884Z,16.13
2022-11-22T05:34:13.759Z,13.33
2022-11-22T05:36:43.181Z,13.13
2022-11-22T05:39:12.623Z,10.63
2022-11-22T05:41:43.698Z,12.13
2022-11-22T05:44:13.141Z,13.33
2022-11-22T05:46:42.569Z,11.03
2022-11-22T05:49:12.023Z,15.97
2022-11-22T05:51:41.453Z,15.00
2022-11-22T05:54:10.903Z,14.07
2022-11-22T05:56:40.767Z,11.30
2022-11-22T05:59:10.214Z,12.07
2022-11-22T06:01:39.684Z,14.60
2022-11-22T06:04:09.159Z,10.83
2022-11-22T06:06:38.747Z,17.63
2022-11-22T06:09:08.200Z,16.33
2022-11-22T06:11:37.615Z,16.63
2022-11-22T06:14:09.455Z,16.87
2022-11-22T06:16:38.880Z,15.07
2022-11-22T06:19:08.568Z,14.17
2022-11-22T06:21:38.000Z,16.40
2022-11-22T06:24:07.982Z,16.57
2022-11-22T06:26:39.615Z,13.87
2022-11-22T06:29:09.160Z,13.20
2022-11-22T06:31:38.649Z,12.97
2022-11-22T06:34:09.232Z,16.00
2022-11-22T06:36:40.122Z,13.27
2022-11-22T06:39:09.693Z,17.10
2022-11-22T06:41:39.898Z,17.83
2022-11-22T06:44:10.997Z,17.03
2022-11-22T06:46:40.426Z,18.90
2022-11-22T06:49:09.930Z,16.43
2022-11-22T06:51:39.356Z,16.10
2022-11-22T06:54:12.871Z,15.13
2022-11-22T06:56:42.960Z,17.50
2022-11-22T06:59:12.603Z,14.13
2022-11-22T07:01:42.080Z,17.30
2022-11-22T07:04:12.131Z,18.23
2022-11-22T07:06:41.633Z,21.07
2022-11-22T07:09:12.806Z,19.60
2022-11-22T07:11:42.507Z,18.37
2022-11-22T07:14:12.021Z,15.47
2022-11-22T07:16:41.721Z,20.77
2022-11-22T07:19:12.139Z,14.03
2022-11-22T07:21:41.575Z,16.75
2022-11-22T07:24:11.085Z,15.47
2022-11-22T07:26:40.531Z,14.90
2022-11-22T07:29:09.974Z,13.90
2022-11-22T07:31:39.413Z,16.83
2022-11-22T07:34:08.847Z,14.37
2022-11-22T07:36:38.353Z,17.93
2022-11-22T07:39:07.791Z,14.70
2022-11-22T07:41:37.228Z,17.87
2022-11-22T07:44:06.663Z,19.17
2022-11-22T07:46:36.105Z,16.40
2022-11-22T07:49:05.550Z,16.20
2022-11-22T07:51:34.986Z,18.90
2022-11-22T07:54:04.434Z,15.47
2022-11-22T07:56:35.139Z,16.93
2022-11-22T07:59:04.575Z,17.30
2022-11-22T08:01:34.094Z,18.33
2022-11-22T08:04:03.594Z,16.80
2022-11-22T08:06:33.383Z,14.60
2022-11-22T08:09:02.844Z,16.93
2022-11-22T08:11:32.351Z,13.40
2022-11-22T08:14:01.784Z,14.20
2022-11-22T08:16:31.211Z,13.40
2022-11-22T08:19:00.651Z,15.60
2022-11-22T08:21:30.087Z,14.87
2022-11-22T08:24:00.589Z,12.97
2022-11-22T08:26:30.030Z,12.57
2022-11-22T08:28:59.459Z,13.23
2022-11-22T08:31:28.953Z,13.47
2022-11-22T08:33:58.387Z,14.10
2022-11-22T08:36:28.828Z,13.57
2022-11-22T08:38:59.172Z,13.67
2022-11-22T08:41:28.616Z,11.20
2022-11-22T08:43:58.075Z,13.83
2022-11-22T08:46:27.494Z,14.57
2022-11-22T08:48:56.928Z,13.73
2022-11-22T08:51:26.359Z,18.27
2022-11-22T08:53:55.801Z,19.67
2022-11-22T08:56:25.302Z,15.77
2022-11-22T08:58:56.005Z,14.20
2022-11-22T09:01:25.437Z,16.13
2022-11-22T09:03:54.926Z,14.07
2022-11-22T09:09:15.229Z,16.80
2022-11-22T09:11:27.352Z,17.50
2022-11-22T09:13:57.534Z,13.50
2022-11-22T09:16:28.833Z,16.47
2022-11-22T09:18:58.281Z,16.47
2022-11-22T09:21:27.978Z,19.90
2022-11-22T09:24:16.772Z,12.13
2022-11-22T09:26:46.245Z,17.43
2022-11-22T09:29:16.058Z,16.03
2022-11-22T09:31:45.599Z,13.60
2022-11-22T09:34:15.041Z,13.03
2022-11-22T09:36:44.459Z,14.73
2022-11-22T09:39:13.907Z,17.90
2022-11-22T09:42:13.640Z,20.33
2022-11-22T09:45:17.701Z,17.63
2022-11-22T09:47:57.697Z,16.63
2022-11-22T09:50:40.748Z,12.73
2022-11-22T09:53:20.209Z,15.03
2022-11-22T09:55:54.087Z,14.63
2022-11-22T09:58:59.962Z,16.30
2022-11-22T10:01:40.660Z,16.50
2022-11-22T10:04:37.363Z,17.67
2022-11-22T10:07:17.450Z,15.20
2022-11-22T10:10:16.067Z,14.33
2022-11-22T10:13:07.851Z,18.33
2022-11-22T10:15:56.771Z,20.43
2022-11-22T10:18:43.028Z,16.10
2022-11-22T10:21:15.247Z,15.27
2022-11-22T10:23:46.699Z,14.67
2022-11-22T10:26:33.961Z,16.57
2022-11-22T10:29:25.887Z,15.73
2022-11-22T10:32:05.429Z,17.33
2022-11-22T10:35:01.649Z,16.43
2022-11-22T10:37:44.714Z,11.37
2022-11-22T10:40:24.087Z,10.70
2022-11-22T10:43:33.399Z,17.87
2022-11-22T10:46:16.293Z,14.10
2022-11-22T10:49:04.990Z,11.90
2022-11-22T10:52:03.240Z,15.93
2022-11-22T10:55:19.128Z,15.93
2022-11-22T10:58:05.023Z,12.60
2022-11-22T11:00:38.151Z,15.23
2022-11-22T11:03:15.076Z,13.67
2022-11-22T11:06:22.588Z,15.93
2022-11-22T11:09:02.829Z,14.20
2022-11-22T11:11:07.809Z,13.43
2022-11-22T11:13:44.930Z,18.03
2022-11-22T11:16:21.741Z,15.90
2022-11-22T11:19:13.592Z,13.33
2022-11-22T11:21:43.022Z,12.53
2022-11-22T11:24:16.400Z,16.27
2022-11-22T11:26:55.304Z,13.80
2022-11-22T11:29:49.651Z,9.20
2022-11-22T11:32:22.103Z,11.73
2022-11-22T11:34:59.442Z,9.60
2022-11-22T11:37:36.662Z,13.60
2022-11-22T11:40:08.975Z,11.57
2022-11-22T11:42:38.414Z,12.73
2022-11-22T11:45:30.614Z,10.00
2022-11-22T11:48:00.043Z,9.37
2022-11-22T11:50:31.524Z,9.53
2022-11-22T11:53:10.908Z,12.20
2022-11-22T11:55:40.345Z,8.90
2022-11-22T11:58:22.839Z,7.23
2022-11-22T12:00:52.702Z,8.00
2022-11-22T12:03:25.753Z,11.20
2022-11-22T12:05:59.784Z,13.33
2022-11-22T12:08:32.548Z,12.37
2022-11-22T12:11:12.481Z,9.83
2022-11-22T12:16:37.268Z,10.73
2022-11-22T12:19:36.418Z,10.73
2022-11-22T12:22:42.717Z,10.20
2022-11-22T12:25:31.460Z,9.07
2022-11-22T12:27:41.481Z,11.60
2022-11-22T12:30:15.531Z,12.53
2022-11-22T12:32:58.732Z,13.60
2022-11-22T12:35:30.852Z,13.00
2022-11-22T12:38:13.937Z,11.67
2022-11-22T12:40:51.521Z,12.67
2022-11-22T12:43:49.527Z,10.90
2022-11-22T12:46:40.147Z,9.80
2022-11-22T12:49:35.521Z,10.00
2022-11-22T12:52:30.537Z,10.20
2022-11-22T12:55:22.490Z,13.17
2022-11-22T12:58:14.664Z,12.10
2022-11-22T13:00:57.172Z,11.20
2022-11-22T13:03:40.103Z,13.90
2022-11-22T13:06:12.353Z,11.43
2022-11-22T13:09:03.262Z,12.00
2022-11-22T13:11:41.979Z,13.20
2022-11-22T13:14:21.593Z,14.23
2022-11-22T13:16:51.990Z,10.83
2022-11-22T13:19:25.988Z,15.97
2022-11-22T13:22:18.154Z,11.47
2022-11-22T13:25:23.710Z,12.77
2022-11-22T13:27:57.279Z,14.70
2022-11-22T13:30:31.050Z,13.57
2022-11-22T13:33:02.322Z,10.97
2022-11-22T13:35:36.544Z,15.17
2022-11-22T13:38:18.073Z,13.40
2022-11-22T13:40:53.858Z,14.83
2022-11-22T13:43:36.197Z,10.00
2022-11-22T13:46:05.631Z,11.10
2022-11-22T13:48:49.981Z,12.37
2022-11-22T13:51:22.664Z,11.30
2022-11-22T13:53:56.266Z,11.70
2022-11-22T13:56:33.235Z,14.90
2022-11-22T13:59:16.424Z,14.07
2022-11-22T14:01:50.837Z,16.80
2022-11-22T14:04:28.399Z,12.90
2022-11-22T14:07:13.883Z,13.20
2022-11-22T14:09:56.136Z,12.90
2022-11-22T14:12:53.816Z,11.77
2022-11-22T14:15:47.254Z,13.10
2022-11-22T14:18:56.180Z,10.00
2022-11-22T14:21:48.160Z,12.60
2022-11-22T14:24:34.096Z,14.37
2022-11-22T14:27:46.137Z,9.43
2022-11-22T14:30:43.364Z,8.67
2022-11-22T14:33:22.825Z,9.37
2022-11-22T14:36:14.364Z,13.20
2022-11-22T14:38:45.809Z,9.70
2022-11-22T14:41:43.884Z,10.07
2022-11-22T14:44:23.521Z,10.67
2022-11-22T14:46:57.908Z,10.47
2022-11-22T14:49:47.096Z,11.17
2022-11-22T14:52:29.544Z,9.50
2022-11-22T14:55:06.219Z,10.90
2022-11-22T14:57:38.340Z,11.83
2022-11-22T15:00:24.648Z,13.47
2022-11-22T15:03:38.242Z,11.23
2022-11-22T15:09:10.685Z,13.17
2022-11-22T15:09:46.436Z,11.80
2022-11-22T15:12:13.220Z,11.63
2022-11-22T15:57:39.708Z,12.30
2022-11-22T16:00:29.394Z,10.17
2022-11-22T16:03:04.207Z,9.40
2022-11-22T16:06:04.680Z,10.43
2022-11-22T16:08:14.780Z,8.77
2022-11-22T16:10:46.086Z,9.33
2022-11-22T16:13:28.868Z,8.90
2022-11-22T16:16:18.658Z,7.63
2022-11-22T16:18:49.016Z,8.77
2022-11-22T16:21:27.700Z,7.47
2022-11-22T16:24:13.576Z,11.23
2022-11-22T16:27:05.408Z,7.30
2022-11-22T16:29:37.343Z,10.17
2022-11-22T16:32:16.471Z,12.23
2022-11-22T16:34:47.059Z,8.47
2022-11-22T16:37:38.345Z,10.70
2022-11-22T16:40:06.062Z,13.40
2022-11-22T16:42:37.978Z,11.77
2022-11-22T16:45:18.933Z,10.63
2022-11-22T16:47:58.630Z,9.90
2022-11-22T16:50:21.739Z,8.20
2022-11-22T16:52:52.601Z,10.33
2022-11-22T16:55:22.842Z,9.07
2022-11-22T16:57:52.470Z,9.60
2022-11-22T17:00:21.977Z,10.70
2022-11-22T17:02:51.393Z,11.37
2022-11-22T17:05:20.838Z,12.03
2022-11-22T17:07:50.341Z,11.80
2022-11-22T17:10:19.787Z,16.93
2022-11-22T17:12:49.246Z,15.77
2022-11-22T17:15:21.884Z,16.13
2022-11-22T17:17:51.309Z,16.97
2022-11-22T17:20:20.751Z,14.07
2022-11-22T17:22:50.183Z,12.20
2022-11-22T17:25:19.791Z,11.13
2022-11-22T17:27:53.957Z,13.90
2022-11-22T17:30:20.458Z,11.63
2022-11-22T17:32:49.929Z,10.37
2022-11-22T17:35:19.449Z,11.47
2022-11-22T17:37:48.943Z,9.63
2022-11-22T17:40:18.759Z,9.73
2022-11-22T17:42:48.283Z,10.13
2022-11-22T17:45:18.003Z,10.63
2022-11-22T17:47:47.557Z,11.70
2022-11-22T17:50:17.464Z,11.70
2022-11-22T17:52:46.886Z,10.93
2022-11-22T17:55:16.392Z,10.10
2022-11-22T17:57:45.814Z,12.03
2022-11-22T18:00:15.932Z,11.23
2022-11-22T18:02:45.406Z,12.50
2022-11-22T18:05:15.139Z,14.97
2022-11-22T18:07:44.643Z,15.90
2022-11-22T18:10:14.221Z,10.07
2022-11-22T18:12:58.593Z,12.57
2022-11-22T18:15:14.812Z,10.93
2022-11-22T18:17:44.245Z,13.73
2022-11-22T18:20:13.714Z,14.60
2022-11-22T18:22:43.214Z,15.00
2022-11-22T18:25:12.646Z,12.83
2022-11-22T18:27:42.493Z,10.63
2022-11-22T18:30:13.426Z,13.43
2022-11-22T18:32:42.882Z,9.47
2022-11-22T18:35:12.298Z,14.03
2022-11-22T18:37:43.231Z,10.23
2022-11-22T18:40:13.788Z,15.17
2022-11-22T18:42:43.228Z,12.13
2022-11-22T18:45:12.732Z,14.13
2022-11-22T18:47:42.179Z,13.57
2022-11-22T18:50:12.693Z,13.00
2022-11-22T18:52:44.258Z,15.73
2022-11-22T18:55:15.326Z,18.10
2022-11-22T18:57:45.619Z,19.30
2022-11-22T19:00:15.743Z,18.27
2022-11-22T19:02:45.190Z,17.37
2022-11-22T19:05:14.695Z,27.23
2022-11-22T19:07:44.208Z,20.83
2022-11-22T19:10:13.648Z,20.53
2022-11-22T19:12:43.573Z,15.80
2022-11-22T19:15:13.564Z,19.93
2022-11-22T19:17:43.097Z,15.33
2022-11-22T19:20:32.183Z,17.20
2022-11-22T19:22:44.272Z,14.63
2022-11-22T19:25:13.700Z,17.73
2022-11-22T19:27:43.138Z,15.10
2022-11-22T19:30:14.595Z,12.17
2022-11-22T19:32:44.049Z,13.83
2022-11-22T19:35:13.469Z,14.03
2022-11-22T19:37:42.911Z,15.20
2022-11-22T19:40:12.789Z,20.20
2022-11-22T19:42:42.233Z,16.10
2022-11-22T19:45:11.792Z,15.47
2022-11-22T19:47:41.232Z,14.33
2022-11-22T19:50:10.664Z,14.40
2022-11-22T19:52:40.111Z,13.07
2022-11-22T19:55:09.849Z,14.17
2022-11-22T19:57:39.326Z,13.30
2022-11-22T20:00:10.173Z,13.50
2022-11-22T20:02:39.630Z,19.30
2022-11-22T20:05:09.485Z,14.53
2022-11-22T20:07:39.074Z,15.80
2022-11-22T20:10:09.213Z,14.43
2022-11-22T20:12:38.659Z,12.10
2022-11-22T20:15:08.698Z,13.03
2022-11-22T20:17:38.213Z,13.43
2022-11-22T20:20:08.279Z,12.10
2022-11-22T20:22:38.090Z,16.57
2022-11-22T20:25:08.150Z,15.27
2022-11-22T20:27:37.599Z,10.93
2022-11-22T20:30:07.864Z,12.50
2022-11-22T20:32:38.836Z,10.40
2022-11-22T20:35:09.544Z,10.80
2022-11-22T20:37:38.981Z,12.80
2022-11-22T20:40:09.234Z,13.60
2022-11-22T20:42:38.736Z,10.97
2022-11-22T20:45:09.121Z,10.57
2022-11-22T20:47:38.565Z,11.30
2022-11-22T20:50:09.005Z,9.37
2022-11-22T20:52:38.451Z,7.23
2022-11-22T20:55:08.607Z,8.43
2022-11-22T20:57:38.411Z,10.37
2022-11-22T21:00:08.980Z,10.53
2022-11-22T21:02:38.417Z,10.93
2022-11-22T21:05:09.785Z,14.40
2022-11-22T21:07:39.276Z,14.00
2022-11-22T21:10:09.152Z,11.77
2022-11-22T21:12:38.596Z,9.93
2022-11-22T21:15:08.800Z,10.77
2022-11-22T21:17:55.638Z,11.80
2022-11-22T21:20:10.344Z,8.67
2022-11-22T21:22:39.927Z,9.20
2022-11-22T21:25:10.383Z,6.80
2022-11-22T21:27:39.817Z,6.50
2022-11-22T21:30:10.462Z,7.73
2022-11-22T21:32:39.897Z,6.87
2022-11-22T21:35:10.190Z,9.90
2022-11-22T21:37:41.700Z,9.50
2022-11-22T21:40:12.758Z,10.87
2022-11-22T21:42:43.835Z,9.43
2022-11-22T21:45:13.261Z,8.50
2022-11-22T21:47:42.695Z,8.43
2022-11-22T21:50:13.368Z,10.73
2022-11-22T21:52:42.865Z,8.10
2022-11-22T21:55:13.116Z,12.53
2022-11-22T21:57:42.537Z,14.73
2022-11-22T22:00:13.136Z,13.67
2022-11-22T22:02:43.011Z,11.80
2022-11-22T22:05:12.444Z,10.80
2022-11-22T22:07:52.461Z,9.70
2022-11-22T22:10:15.264Z,9.33
2022-11-22T22:12:44.697Z,10.13
2022-11-22T22:15:14.867Z,7.27
2022-11-22T22:17:44.346Z,8.13
2022-11-22T22:20:14.108Z,6.57
2022-11-22T22:22:43.542Z,7.50
2022-11-22T22:25:12.970Z,7.23
2022-11-22T22:27:42.418Z,5.87
2022-11-22T22:30:12.818Z,7.17
2022-11-22T22:32:42.427Z,6.17
2022-11-22T22:35:12.120Z,5.13
2022-11-22T22:37:41.556Z,6.57
2022-11-22T22:40:11.298Z,6.23
2022-11-22T22:42:40.739Z,4.40
2022-11-22T22:45:11.738Z,5.57
2022-11-22T22:47:41.189Z,5.03
2022-11-22T22:50:11.549Z,5.00
2022-11-22T22:52:40.990Z,8.13
2022-11-22T22:55:10.979Z,4.50
2022-11-22T22:57:40.441Z,6.23
2022-11-22T23:00:12.392Z,6.70
2022-11-22T23:02:41.911Z,5.37
2022-11-22T23:05:11.408Z,5.40
2022-11-22T23:07:43.882Z,5.47
2022-11-22T23:10:12.445Z,5.40
2022-11-22T23:12:41.898Z,6.37
2022-11-22T23:15:11.769Z,5.60
2022-11-22T23:17:41.221Z,4.90
2022-11-22T23:20:11.133Z,6.57
2022-11-22T23:22:40.562Z,7.77
2022-11-22T23:25:11.212Z,6.60
2022-11-22T23:28:01.935Z,7.40
2022-11-22T23:30:31.356Z,7.97
2022-11-22T23:33:00.811Z,7.23
2022-11-22T23:35:30.228Z,7.73
2022-11-22T23:37:59.700Z,9.07
2022-11-22T23:40:29.287Z,6.50
2022-11-22T23:42:59.724Z,6.40
2022-11-22T23:45:29.144Z,7.40
2022-11-22T23:47:58.589Z,7.17
2022-11-22T23:50:28.008Z,7.30
2022-11-22T23:52:57.820Z,6.70
2022-11-22T23:55:27.240Z,6.77
2022-11-22T23:58:01.229Z,6.00
